Time;durP1;ratioP1;P1;durP2;ratioP2;P2;SDS_P1;SDS_P2;PMS_P1;PMS_P2;Temp;Humidity;BMP_temperature;BMP_pressure;BME280_temperature;BME280_humidity;BME280_pressure;Samples;Min_cycle;Max_cycle;Signal;HPM_P1;HPM_P2
2022/06/11 00:00:46;;;;;;;6.43;4.43;;;11.20;99.90;10.40;100863;;;;581334;245;24074;-82
2022/06/11 00:03:17;;;;;;;4.37;3.97;;;11.20;99.90;10.40;100854;;;;572053;245;24070;-81
2022/06/11 00:05:43;;;;;;;12.77;4.77;;;11.10;99.90;10.40;100859;;;;549141;255;24206;-81
2022/06/11 00:08:11;;;;;;;5.03;4.43;;;11.10;99.90;10.40;100855;;;;577058;245;24094;-84
2022/06/11 00:10:43;;;;;;;5.97;4.27;;;11.10;99.90;10.40;100852;;;;576850;245;24088;-83
2022/06/11 00:13:12;;;;;;;6.27;4.30;;;11.10;99.90;10.40;100853;;;;571372;245;24066;-78
2022/06/11 00:15:41;;;;;;;4.37;3.83;;;11.10;99.90;10.40;100853;;;;576518;246;24121;-81
2022/06/11 00:18:05;;;;;;;8.87;4.70;;;11.10;99.90;10.40;100852;;;;576314;246;24056;-83
2022/06/11 00:20:41;;;;;;;6.33;4.30;;;11.10;99.90;10.40;100845;;;;584542;246;24058;-82
2022/06/11 00:23:09;;;;;;;7.07;4.87;;;11.10;99.90;10.40;100849;;;;576906;246;24095;-83
2022/06/11 00:25:40;;;;;;;5.03;4.63;;;11.10;99.90;10.30;100844;;;;576793;246;24072;-86
2022/06/11 00:28:06;;;;;;;7.43;4.27;;;11.10;99.90;10.30;100847;;;;576793;246;24053;-85
2022/06/11 00:30:36;;;;;;;6.03;4.30;;;11.00;99.90;10.30;100839;;;;576816;243;24044;-82
2022/06/11 00:33:06;;;;;;;4.63;4.07;;;11.10;99.90;10.30;100845;;;;576788;246;24079;-84
2022/06/11 00:35:29;;;;;;;9.83;4.33;;;11.10;99.90;10.30;100836;;;;576414;246;24096;-82
2022/06/11 00:37:57;;;;;;;5.23;4.43;;;11.10;99.90;10.30;100839;;;;576508;246;24059;-81
2022/06/11 00:40:25;;;;;;;9.07;4.87;;;11.00;99.90;10.30;100838;;;;576875;246;24076;-82
2022/06/11 00:42:53;;;;;;;7.20;4.70;;;11.00;99.90;10.30;100835;;;;576339;246;24145;-79
2022/06/11 00:45:28;;;;;;;9.10;6.53;;;11.00;99.90;10.30;100829;;;;571510;246;45900;-80
2022/06/11 00:47:55;;;;;;;11.40;5.83;;;11.00;99.90;10.30;100828;;;;576359;246;24062;-81
2022/06/11 00:50:29;;;;;;;5.27;4.37;;;11.00;99.90;10.30;100829;;;;576334;246;24059;-80
2022/06/11 00:52:58;;;;;;;4.43;4.10;;;11.00;99.90;10.30;100832;;;;576795;246;24071;-79
2022/06/11 00:55:28;;;;;;;7.83;4.40;;;11.00;99.90;10.30;100839;;;;571654;246;24047;-80
2022/06/11 00:57:59;;;;;;;5.70;5.10;;;11.00;99.90;10.20;100829;;;;576247;246;24095;-79
2022/06/11 01:00:30;;;;;;;8.43;4.10;;;11.00;99.90;10.20;100826;;;;576463;246;24043;-81
2022/06/11 01:03:00;;;;;;;7.87;4.70;;;11.00;99.90;10.20;100829;;;;576628;246;24122;-78
2022/06/11 01:05:26;;;;;;;8.07;4.50;;;10.90;99.90;10.20;100829;;;;579710;246;24067;-79
2022/06/11 01:08:14;;;;;;;8.30;4.43;;;10.90;99.90;10.20;100821;;;;576503;246;24125;-77
2022/06/11 01:11:01;;;;;;;5.83;4.20;;;10.90;99.90;10.10;100825;;;;577402;245;24067;-79
2022/06/11 01:13:47;;;;;;;5.73;4.53;;;10.80;99.90;10.10;100828;;;;577645;245;24127;-79
2022/06/11 01:16:43;;;;;;;7.77;4.53;;;10.80;99.90;10.10;100817;;;;577677;245;24131;-80
2022/06/11 01:19:31;;;;;;;7.17;4.37;;;10.80;99.90;10.10;100814;;;;576420;245;24084;-82
2022/06/11 01:22:40;;;;;;;5.47;4.00;;;10.80;99.90;10.10;100825;;;;576303;245;24063;-81
2022/06/11 01:25:17;;;;;;;8.10;6.93;;;10.70;99.90;10.10;100826;;;;571732;245;34971;-81
2022/06/11 01:27:57;;;;;;;9.80;6.23;;;10.70;99.90;10.00;100828;;;;576666;246;24044;-79
2022/06/11 01:30:25;;;;;;;6.57;5.33;;;10.70;99.90;10.00;100831;;;;575919;246;24064;-80
2022/06/11 01:32:59;;;;;;;7.43;5.13;;;10.70;99.90;10.00;100827;;;;576467;246;24063;-81
2022/06/11 01:35:57;;;;;;;6.37;4.93;;;10.70;99.90;10.00;100825;;;;576319;246;24056;-79
2022/06/11 01:38:47;;;;;;;10.23;5.40;;;10.70;99.90;10.00;100836;;;;576460;246;24062;-81
2022/06/11 01:41:40;;;;;;;8.17;4.63;;;10.70;99.90;10.00;100836;;;;576375;246;24042;-81
2022/06/11 01:44:04;;;;;;;7.60;4.50;;;10.70;99.90;9.90;100831;;;;571529;246;24055;-81
2022/06/11 01:46:38;;;;;;;8.20;4.67;;;10.60;99.90;9.90;100828;;;;576303;246;24066;-83
2022/06/11 01:49:11;;;;;;;4.77;4.37;;;10.60;99.90;9.90;100844;;;;576206;241;24102;-83
2022/06/11 01:51:48;;;;;;;9.17;5.23;;;10.60;99.90;9.90;100839;;;;575373;246;24111;-80
2022/06/11 01:55:07;;;;;;;9.97;5.10;;;10.60;99.90;9.90;100839;;;;576059;246;24066;-81
2022/06/11 01:57:54;;;;;;;8.60;5.40;;;10.60;99.90;9.80;100844;;;;576482;246;24056;-80
2022/06/11 02:00:27;;;;;;;9.57;5.13;;;10.50;99.90;9.90;100847;;;;576325;246;24059;-80
2022/06/11 02:03:23;;;;;;;8.53;4.77;;;10.60;99.90;9.90;100845;;;;576230;246;24063;-80
2022/06/11 02:06:18;;;;;;;14.87;5.33;;;10.60;99.90;9.90;100846;;;;576096;246;24067;-80
2022/06/11 02:09:10;;;;;;;5.60;4.90;;;10.60;99.90;9.90;100851;;;;575767;246;24160;-82
2022/06/11 02:11:39;;;;;;;6.90;4.87;;;10.60;99.90;9.90;100853;;;;576271;246;25100;-81
2022/06/11 02:14:12;;;;;;;6.77;5.20;;;10.60;99.90;9.90;100851;;;;576234;246;24071;-81
2022/06/11 02:17:03;;;;;;;7.27;4.93;;;10.60;99.90;9.90;100861;;;;576304;246;24044;-83
2022/06/11 02:19:31;;;;;;;7.90;5.13;;;10.60;99.90;9.90;100863;;;;576648;246;24043;-80
2022/06/11 02:22:01;;;;;;;8.43;4.30;;;10.60;99.90;9.90;100859;;;;576755;245;24065;-81
2022/06/11 02:24:35;;;;;;;11.93;4.90;;;10.70;99.90;9.90;100867;;;;577228;245;24072;-81
2022/06/11 02:27:03;;;;;;;6.73;5.03;;;10.70;99.90;9.90;100861;;;;577012;245;24054;-79
2022/06/11 02:29:33;;;;;;;6.97;4.97;;;10.70;99.90;10.00;100865;;;;576824;245;24125;-80
2022/06/11 02:31:59;;;;;;;7.37;5.20;;;10.70;99.90;10.00;100868;;;;576675;245;24099;-80
2022/06/11 02:34:31;;;;;;;9.03;5.17;;;10.70;99.90;10.00;100873;;;;576451;245;24082;-80
2022/06/11 02:36:59;;;;;;;9.57;4.87;;;10.70;99.90;10.10;100871;;;;576883;245;24116;-80
2022/06/11 02:39:26;;;;;;;7.47;4.80;;;10.80;99.90;10.10;100875;;;;576716;246;24120;-80
2022/06/11 02:41:58;;;;;;;6.90;4.53;;;10.80;99.90;10.10;100872;;;;576526;246;24052;-79
2022/06/11 02:44:22;;;;;;;6.27;5.10;;;10.80;99.90;10.10;100877;;;;576244;246;24051;-79
2022/06/11 02:46:50;;;;;;;8.43;5.20;;;10.90;99.90;10.20;100880;;;;576456;246;24170;-81
2022/06/11 02:49:27;;;;;;;12.03;5.50;;;10.90;99.90;10.20;100882;;;;576690;246;24064;-81
2022/06/11 02:51:52;;;;;;;9.60;5.20;;;10.90;99.90;10.30;100896;;;;576534;246;24114;-79
2022/06/11 02:54:23;;;;;;;9.17;4.83;;;11.00;99.90;10.30;100890;;;;576758;246;24046;-82
2022/06/11 02:56:50;;;;;;;8.90;5.03;;;11.00;99.90;10.40;100896;;;;585308;245;24048;-85
2022/06/11 02:59:19;;;;;;;5.13;4.43;;;11.10;99.90;10.50;100900;;;;576822;246;24049;-87
2022/06/11 03:01:49;;;;;;;11.87;5.23;;;11.20;99.90;10.60;100900;;;;576571;246;24120;-88
2022/06/11 03:04:14;;;;;;;9.50;5.07;;;11.30;99.90;10.70;100904;;;;576567;246;24078;-82
2022/06/11 03:06:42;;;;;;;7.17;4.43;;;11.40;99.90;10.70;100899;;;;576830;246;24055;-86
2022/06/11 03:09:10;;;;;;;9.63;4.70;;;11.40;99.90;10.90;100908;;;;548754;255;24148;-85
2022/06/11 03:11:38;;;;;;;7.20;4.67;;;11.50;99.90;11.00;100909;;;;576558;246;24047;-86
2022/06/11 03:14:06;;;;;;;13.20;4.63;;;11.70;99.90;11.40;100906;;;;571183;246;24124;-87
2022/06/11 03:16:38;;;;;;;7.13;4.87;;;12.00;99.90;12.20;100903;;;;576407;246;24054;-88
2022/06/11 03:19:09;;;;;;;6.17;4.20;;;12.70;99.90;13.10;100907;;;;576622;246;24045;-88
2022/06/11 03:21:33;;;;;;;11.43;4.20;;;13.60;99.90;14.00;100915;;;;576342;246;25093;-88
2022/06/11 03:24:04;;;;;;;8.43;4.10;;;14.50;99.90;14.90;100918;;;;576688;246;24044;-89
2022/06/11 03:26:32;;;;;;;8.77;3.43;;;15.40;99.90;15.70;100909;;;;576521;246;24035;-90
2022/06/11 03:28:56;;;;;;;3.53;2.33;;;16.30;99.90;16.40;100927;;;;576323;246;24103;-82
2022/06/11 03:31:27;;;;;;;4.00;2.67;;;17.10;99.90;17.30;100925;;;;576551;246;24042;-87
2022/06/11 03:33:52;;;;;;;5.33;2.60;;;17.80;99.90;17.90;100921;;;;577466;245;24047;-85
2022/06/11 03:36:23;;;;;;;3.97;2.60;;;18.50;99.90;18.50;100925;;;;577634;245;24082;-87
2022/06/11 03:38:52;;;;;;;4.67;2.30;;;19.20;99.90;19.00;100931;;;;548998;255;24111;-87
2022/06/11 03:41:19;;;;;;;7.67;3.10;;;19.80;99.90;19.60;100930;;;;577101;245;24049;-87
2022/06/11 03:43:44;;;;;;;4.17;2.23;;;20.40;99.90;20.20;100925;;;;576709;245;23072;-84
2022/06/11 03:46:12;;;;;;;9.63;2.87;;;21.00;99.90;21.00;100921;;;;576928;245;24053;-84
2022/06/11 03:48:40;;;;;;;7.47;3.37;;;21.70;99.90;21.50;100924;;;;576993;245;24047;-87
2022/06/11 03:51:08;;;;;;;7.00;2.50;;;22.30;99.90;22.10;100922;;;;576802;246;24098;-83
2022/06/11 03:53:36;;;;;;;3.50;2.00;;;22.80;99.90;22.50;100930;;;;576705;246;24046;-80
2022/06/11 03:56:04;;;;;;;2.40;2.00;;;23.40;99.90;22.80;100927;;;;579891;246;24091;-79
2022/06/11 03:58:31;;;;;;;3.17;2.30;;;23.80;99.90;23.30;100930;;;;576786;246;23069;-80
2022/06/11 04:01:16;;;;;;;4.70;1.97;;;24.70;99.70;23.80;100937;;;;577108;246;23071;-82
2022/06/11 04:03:46;;;;;;;5.90;2.47;;;24.70;99.60;24.40;100933;;;;577051;246;24041;-80
2022/06/11 04:06:14;;;;;;;3.00;2.10;;;25.30;96.80;24.90;100932;;;;576921;246;23056;-81
2022/06/11 04:08:45;;;;;;;4.63;1.93;;;26.40;92.70;25.50;100932;;;;576857;246;24063;-79
2022/06/11 04:11:17;;;;;;;2.70;1.90;;;26.30;92.30;26.10;100943;;;;576803;246;23038;-81
2022/06/11 04:13:41;;;;;;;4.93;2.40;;;27.00;89.60;26.50;100933;;;;575983;246;24064;-82
2022/06/11 04:16:09;;;;;;;5.27;2.43;;;27.50;84.30;26.90;100936;;;;576444;246;23072;-81
2022/06/11 04:18:37;;;;;;;4.47;2.00;;;27.90;80.10;27.30;100939;;;;575373;246;23057;-82
2022/06/11 04:21:07;;;;;;;3.70;2.07;;;28.30;77.50;27.60;100945;;;;576259;246;23056;-81
2022/06/11 04:23:35;;;;;;;5.60;2.30;;;28.70;74.80;28.10;100957;;;;576263;246;23066;-80
2022/06/11 04:26:03;;;;;;;3.95;2.60;;;29.20;73.20;28.70;100948;;;;576663;246;23050;-80
2022/06/11 04:28:31;;;;;;;5.00;2.05;;;29.70;70.70;29.50;100949;;;;576456;246;24110;-79
2022/06/11 04:31:03;;;;;;;5.07;2.22;;;30.50;65.70;29.60;100952;;;;576131;246;23100;-80
2022/06/11 04:33:31;;;;;;;4.25;2.20;;;30.80;64.10;30.10;100947;;;;576332;246;23079;-79
2022/06/11 04:35:55;;;;;;;6.43;2.17;;;31.20;61.90;30.30;100948;;;;579311;246;23070;-79
2022/06/11 04:38:25;;;;;;;5.03;2.10;;;31.50;61.30;30.70;100956;;;;576733;246;23072;-81
2022/06/11 04:40:50;;;;;;;6.15;2.20;;;31.90;59.50;31.20;100946;;;;576456;246;23049;-80
2022/06/11 04:43:22;;;;;;;8.13;2.08;;;32.40;57.90;31.50;100950;;;;576234;246;23088;-80
2022/06/11 04:45:46;;;;;;;4.47;2.45;;;32.70;56.70;31.70;100950;;;;577434;245;23058;-81
2022/06/11 04:48:15;;;;;;;5.65;2.22;;;33.30;55.60;32.10;100956;;;;572081;245;23067;-80
2022/06/11 04:50:44;;;;;;;3.20;1.87;;;33.70;54.50;32.50;100959;;;;577293;245;23063;-79
2022/06/11 04:53:12;;;;;;;5.55;2.12;;;33.70;54.40;33.00;100961;;;;577135;245;23042;-79
2022/06/11 04:55:40;;;;;;;5.97;2.62;;;34.20;54.00;33.60;100966;;;;577512;245;24094;-78
2022/06/11 04:58:07;;;;;;;2.55;1.90;;;34.80;53.30;34.10;100963;;;;577116;245;24086;-80
2022/06/11 05:00:38;;;;;;;6.78;2.45;;;35.30;51.80;34.70;100967;;;;571684;245;34915;-81
2022/06/11 05:03:03;;;;;;;4.70;2.15;;;35.90;50.40;35.00;100970;;;;576715;246;23067;-81
2022/06/11 05:05:34;;;;;;;3.47;2.00;;;36.30;49.80;35.40;100971;;;;576884;246;23058;-80
2022/06/11 05:08:02;;;;;;;5.43;2.30;;;36.60;49.00;35.90;100979;;;;571536;246;23101;-78
2022/06/11 05:10:28;;;;;;;5.12;2.00;;;37.60;47.30;36.50;100977;;;;577114;246;24094;-79
2022/06/11 05:12:58;;;;;;;2.92;2.12;;;37.50;47.20;36.70;100978;;;;576616;246;23060;-82
2022/06/11 05:15:24;;;;;;;4.10;2.37;;;37.90;46.80;37.30;100985;;;;566421;246;34975;-80
2022/06/11 05:17:52;;;;;;;4.37;2.30;;;38.30;45.70;37.60;100977;;;;577211;246;23044;-80
2022/06/11 05:20:23;;;;;;;5.80;2.60;;;38.80;45.40;38.10;100988;;;;571520;246;23083;-80
2022/06/11 05:22:50;;;;;;;4.10;2.25;;;39.10;44.50;38.50;100992;;;;576340;246;23113;-80
2022/06/11 05:25:21;;;;;;;2.85;2.00;;;39.40;44.10;38.50;100992;;;;576954;246;23049;-81
2022/06/11 05:27:46;;;;;;;4.07;1.77;;;39.50;43.20;38.70;100985;;;;576165;246;23066;-81
2022/06/11 05:30:23;;;;;;;4.37;2.33;;;39.60;43.00;39.50;100992;;;;576320;246;23054;-82
2022/06/11 05:32:47;;;;;;;3.50;2.05;;;40.20;41.90;39.70;100997;;;;575935;246;24110;-82
2022/06/11 05:35:22;;;;;;;5.25;1.90;;;40.70;41.50;40.10;101005;;;;576357;246;23053;-79
2022/06/11 05:37:46;;;;;;;3.40;2.17;;;41.10;41.70;40.70;101004;;;;575925;246;23057;-82
2022/06/11 05:40:16;;;;;;;7.68;2.65;;;41.70;41.20;41.20;101004;;;;576155;246;23053;-82
2022/06/11 05:42:47;;;;;;;4.47;1.62;;;42.00;40.40;40.90;101009;;;;575744;246;23055;-83
2022/06/11 05:45:14;;;;;;;3.70;2.03;;;41.80;39.50;40.80;101018;;;;575706;246;23180;-82
2022/06/11 05:47:41;;;;;;;2.08;1.62;;;42.00;39.40;41.20;101017;;;;576270;246;23049;-82
2022/06/11 05:50:12;;;;;;;6.12;2.50;;;42.00;39.30;41.60;101013;;;;576379;246;23090;-86
2022/06/11 05:52:38;;;;;;;4.28;2.83;;;42.40;38.90;41.90;101012;;;;575980;246;23064;-86
2022/06/11 05:55:06;;;;;;;2.83;1.98;;;43.30;38.10;42.80;101020;;;;576378;246;24099;-86
2022/06/11 05:57:37;;;;;;;6.30;1.90;;;43.20;38.00;43.10;101021;;;;577858;244;24088;-86
2022/06/11 06:00:02;;;;;;;4.65;2.00;;;43.70;37.40;43.40;101033;;;;549180;255;23131;-85
2022/06/11 06:02:30;;;;;;;2.55;1.85;;;44.10;37.40;43.40;101030;;;;577027;245;23089;-87
2022/06/11 06:04:58;;;;;;;5.18;2.33;;;44.10;37.00;43.50;101031;;;;577771;245;23083;-84
2022/06/11 06:07:26;;;;;;;3.42;1.85;;;44.30;37.20;44.00;101038;;;;577649;245;23074;-85
2022/06/11 06:09:54;;;;;;;3.65;1.73;;;44.50;37.00;44.30;101035;;;;577654;245;24091;-84
2022/06/11 06:12:22;;;;;;;3.92;2.28;;;44.90;36.60;44.70;101040;;;;577910;245;23093;-86
2022/06/11 06:14:50;;;;;;;3.10;1.70;;;45.20;36.40;45.00;101041;;;;577701;246;23077;-81
2022/06/11 06:17:18;;;;;;;6.00;2.35;;;45.50;36.20;45.60;101037;;;;576777;246;23050;-79
2022/06/11 06:19:45;;;;;;;2.87;1.62;;;46.10;35.90;46.30;101040;;;;576648;246;23040;-83
2022/06/11 06:22:14;;;;;;;3.62;1.58;;;46.90;34.40;46.30;101036;;;;576628;246;23042;-78
2022/06/11 06:24:47;;;;;;;3.27;2.20;;;47.30;34.30;46.70;101039;;;;571671;246;34919;-81
2022/06/11 06:27:11;;;;;;;3.47;1.75;;;47.30;34.00;46.60;101035;;;;576446;246;23071;-81
2022/06/11 06:29:40;;;;;;;6.80;2.30;;;47.30;34.00;46.70;101035;;;;576724;246;24094;-80
2022/06/11 06:32:10;;;;;;;2.95;1.90;;;47.30;33.80;46.80;101025;;;;576484;246;23090;-79
2022/06/11 06:34:35;;;;;;;7.43;2.10;;;47.40;33.80;47.00;101031;;;;570798;246;23063;-80
2022/06/11 06:37:03;;;;;;;4.10;2.08;;;47.50;33.60;47.40;101036;;;;576320;246;23046;-79
2022/06/11 06:39:32;;;;;;;4.43;2.22;;;47.70;33.50;47.90;101033;;;;570972;246;23093;-78
2022/06/11 06:41:59;;;;;;;4.37;2.00;;;48.20;32.70;47.80;101039;;;;576393;246;23046;-78
2022/06/11 06:44:27;;;;;;;4.65;1.87;;;48.30;32.90;47.80;101038;;;;576297;246;23052;-80
2022/06/11 06:46:56;;;;;;;3.78;1.52;;;48.00;33.00;47.50;101036;;;;576398;246;23112;-81
2022/06/11 06:49:24;;;;;;;3.35;1.80;;;48.10;32.90;47.80;101036;;;;576328;246;23082;-79
2022/06/11 06:51:52;;;;;;;4.28;2.08;;;48.00;32.80;48.50;101041;;;;576182;246;23065;-80
2022/06/11 06:54:23;;;;;;;4.82;2.00;;;48.70;33.00;48.70;101037;;;;576380;246;23071;-79
2022/06/11 06:56:48;;;;;;;4.45;2.20;;;49.00;32.50;48.80;101036;;;;570845;246;45779;-80
2022/06/11 06:59:16;;;;;;;3.55;1.80;;;49.20;31.90;48.80;101032;;;;576410;246;23086;-82
2022/06/11 07:01:44;;;;;;;2.40;1.75;;;49.30;31.80;49.10;101035;;;;576213;246;23056;-79
2022/06/11 07:04:14;;;;;;;2.42;1.67;;;49.40;31.60;49.10;101039;;;;576200;246;24108;-79
2022/06/11 07:06:40;;;;;;;2.65;1.58;;;49.50;31.50;49.10;101033;;;;571190;246;23053;-80
2022/06/11 07:09:07;;;;;;;2.78;1.80;;;49.50;31.30;49.40;101036;;;;578182;245;23062;-78
2022/06/11 07:11:35;;;;;;;2.95;1.60;;;49.80;31.20;49.80;101039;;;;580951;245;23056;-80
2022/06/11 07:14:04;;;;;;;2.47;1.60;;;50.10;30.70;49.90;101034;;;;577505;245;23044;-80
2022/06/11 07:16:36;;;;;;;3.30;2.03;;;50.30;30.50;49.90;101027;;;;577335;245;23072;-79
2022/06/11 07:19:07;;;;;;;3.12;1.80;;;50.40;30.50;50.20;101039;;;;576673;245;23120;-83
2022/06/11 07:21:37;;;;;;;3.35;1.90;;;50.50;30.50;50.40;101041;;;;576420;245;23094;-80
2022/06/11 07:24:02;;;;;;;3.80;1.40;;;50.70;29.80;50.20;101036;;;;576488;245;23101;-81
2022/06/11 07:26:36;;;;;;;4.28;1.70;;;50.50;29.80;50.10;101036;;;;576377;246;23071;-80
2022/06/11 07:29:15;;;;;;;2.20;1.40;;;50.50;29.80;50.00;101032;;;;576606;246;23084;-84
2022/06/11 07:31:44;;;;;;;4.22;1.75;;;50.40;29.90;50.00;101038;;;;579349;246;24115;-86
2022/06/11 07:34:15;;;;;;;3.42;1.70;;;50.20;30.20;50.30;101033;;;;576636;246;23178;-84
2022/06/11 07:36:39;;;;;;;3.17;2.30;;;50.50;30.00;50.70;101035;;;;576275;246;23070;-79
2022/06/11 07:39:08;;;;;;;2.37;2.00;;;51.40;29.40;51.30;101037;;;;576684;246;23098;-80
2022/06/11 07:41:39;;;;;;;4.55;1.85;;;51.90;29.00;51.70;101035;;;;576612;246;23059;-80
2022/06/11 07:44:05;;;;;;;2.78;1.73;;;51.90;28.90;51.80;101037;;;;575908;246;23087;-84
2022/06/11 07:46:35;;;;;;;1.80;1.40;;;52.10;29.10;52.10;101037;;;;576347;246;23062;-85
2022/06/11 07:49:00;;;;;;;4.45;1.90;;;52.30;28.50;52.30;101041;;;;571050;242;23114;-81
2022/06/11 07:51:28;;;;;;;3.95;2.12;;;52.40;28.30;52.20;101047;;;;576488;246;23076;-82
2022/06/11 07:53:56;;;;;;;4.50;1.77;;;52.50;28.90;52.10;101039;;;;576462;246;23061;-79
2022/06/11 07:56:24;;;;;;;3.33;1.92;;;52.50;28.30;52.50;101045;;;;576551;246;23124;-85
2022/06/11 07:58:56;;;;;;;2.12;1.80;;;52.70;28.80;52.30;101037;;;;576519;246;23142;-82
2022/06/11 08:01:20;;;;;;;1.62;1.52;;;52.70;28.30;52.30;101042;;;;557442;251;23117;-84
2022/06/11 08:03:48;;;;;;;4.90;2.10;;;52.60;28.30;52.00;101035;;;;576404;246;23099;-88
2022/06/11 08:06:16;;;;;;;4.28;2.30;;;52.40;28.20;52.00;101035;;;;576269;246;23056;-85
2022/06/11 08:08:45;;;;;;;3.50;2.03;;;52.20;28.80;51.90;101039;;;;576604;246;23053;-86
2022/06/11 08:11:12;;;;;;;3.15;2.00;;;52.20;28.70;51.50;101043;;;;576608;246;23090;-82
2022/06/11 08:13:39;;;;;;;3.25;1.80;;;52.00;29.10;50.70;101043;;;;576623;246;23092;-84
2022/06/11 08:16:07;;;;;;;4.35;2.12;;;51.20;29.10;51.20;101048;;;;576822;246;23054;-83
2022/06/11 08:18:35;;;;;;;2.97;1.77;;;51.50;29.00;51.30;101043;;;;577376;244;23060;-86
2022/06/11 08:21:08;;;;;;;3.47;2.12;;;51.70;28.90;51.70;101047;;;;578177;245;23055;-85
2022/06/11 08:23:41;;;;;;;;;;;;;;;;;;;;;
2022/06/11 08:26:02;;;;;;;4.43;1.95;;;52.20;28.70;51.70;101043;;;;576490;245;23074;-86
2022/06/11 08:28:30;;;;;;;4.03;2.08;;;52.10;29.00;51.80;101037;;;;577060;245;23088;-87
2022/06/11 08:31:02;;;;;;;4.60;1.98;;;52.20;28.70;51.80;101034;;;;576827;245;23055;-86
2022/06/11 08:33:26;;;;;;;1.67;1.55;;;52.20;29.00;52.30;101038;;;;571362;245;24117;-81
2022/06/11 08:35:54;;;;;;;2.50;1.73;;;52.70;29.30;52.60;101037;;;;576877;245;23061;-86
2022/06/11 08:38:22;;;;;;;4.20;2.03;;;53.00;28.70;52.40;101027;;;;576971;246;23063;-84
2022/06/11 08:40:50;;;;;;;6.50;2.08;;;53.10;28.60;52.10;101028;;;;576747;246;23072;-86
2022/06/11 08:43:29;;;;;;;4.25;2.30;;;52.80;28.70;52.40;101034;;;;571355;246;34926;-86
2022/06/11 08:46:16;;;;;;;3.75;1.83;;;53.40;28.80;52.70;101032;;;;576477;246;23053;-79
2022/06/11 08:48:47;;;;;;;2.62;2.17;;;53.30;28.70;53.20;101032;;;;576809;246;23152;-81
2022/06/11 08:51:33;;;;;;;6.47;2.35;;;53.70;28.60;51.90;101040;;;;576582;246;23103;-81
2022/06/11 08:54:00;;;;;;;5.35;2.08;;;53.20;28.30;49.40;101050;;;;576757;246;23057;-80
2022/06/11 08:56:32;;;;;;;4.22;1.60;;;50.30;29.50;49.20;101040;;;;576425;246;23066;-80
2022/06/11 08:59:12;;;;;;;2.28;1.55;;;50.20;29.50;49.80;101041;;;;576403;246;23086;-82
2022/06/11 09:02:10;;;;;;;4.70;1.55;;;50.30;29.50;50.20;101039;;;;576078;246;23049;-81
2022/06/11 09:05:21;;;;;;;5.00;1.77;;;51.30;29.20;50.60;101038;;;;568685;244;24175;-79
2022/06/11 09:08:01;;;;;;;3.40;2.20;;;51.20;29.20;50.20;101039;;;;576553;246;23068;-80
2022/06/11 09:10:50;;;;;;;4.07;1.77;;;50.90;29.70;48.80;101042;;;;575430;246;23066;-80
2022/06/11 09:14:00;;;;;;;5.35;2.12;;;50.30;29.60;48.50;101045;;;;566192;246;37868;-86
2022/06/11 09:16:56;;;;;;;2.45;1.42;;;49.60;30.00;49.50;101042;;;;576241;246;23054;-79
2022/06/11 09:19:48;;;;;;;4.00;1.65;;;50.20;29.90;50.60;101042;;;;576695;246;24156;-80
2022/06/11 09:22:22;;;;;;;4.62;1.70;;;52.10;29.40;51.40;101040;;;;576532;246;23084;-82
2022/06/11 09:25:09;;;;;;;2.08;1.70;;;52.00;28.90;52.30;101030;;;;576264;246;23056;-81
2022/06/11 09:27:39;;;;;;;2.45;1.92;;;53.10;29.00;53.30;101029;;;;575639;246;23060;-81
2022/06/11 09:30:19;;;;;;;2.60;2.22;;;54.10;28.20;53.70;101028;;;;576004;244;24140;-84
2022/06/11 09:32:55;;;;;;;2.67;1.87;;;54.80;27.70;54.10;101019;;;;577573;245;23051;-81
2022/06/11 09:35:35;;;;;;;4.05;2.53;;;55.30;27.60;54.70;101023;;;;577626;245;23040;-83
2022/06/11 09:38:34;;;;;;;7.32;2.90;;;55.90;27.50;55.00;101014;;;;576735;245;24120;-79
2022/06/11 09:41:29;;;;;;;3.58;2.28;;;56.20;27.30;55.20;101009;;;;571938;245;35056;-80
2022/06/11 09:44:00;;;;;;;4.28;2.60;;;56.90;26.20;54.30;101010;;;;577133;245;24124;-81
2022/06/11 09:46:40;;;;;;;4.70;2.45;;;56.40;26.80;53.40;101009;;;;574776;245;23049;-80
2022/06/11 09:49:08;;;;;;;6.97;2.22;;;54.50;27.70;52.60;101010;;;;576542;242;23081;-81
2022/06/11 09:51:58;;;;;;;4.55;2.42;;;54.20;27.70;52.60;101008;;;;575666;246;23064;-81
2022/06/11 09:54:47;;;;;;;2.70;2.17;;;54.10;27.60;52.40;101003;;;;576162;246;23054;-81
2022/06/11 09:57:33;;;;;;;2.05;1.87;;;53.80;27.70;52.70;101009;;;;576175;246;23121;-78
2022/06/11 10:00:15;;;;;;;2.42;1.75;;;54.00;27.80;53.20;101002;;;;576525;246;23076;-79
2022/06/11 10:02:53;;;;;;;3.92;1.98;;;54.50;28.10;53.50;101002;;;;575259;246;23075;-80
2022/06/11 10:05:16;;;;;;;4.15;2.35;;;54.90;27.60;53.20;101003;;;;572991;246;23075;-79
2022/06/11 10:07:44;;;;;;;2.08;1.98;;;55.00;27.60;53.40;100999;;;;575843;246;23093;-80
2022/06/11 10:10:21;;;;;;;3.53;2.00;;;55.30;27.30;53.50;100995;;;;576483;246;23062;-80
2022/06/11 10:13:10;;;;;;;4.10;1.87;;;55.20;27.60;53.30;100996;;;;576417;246;24149;-79
2022/06/11 10:15:42;;;;;;;3.35;1.83;;;55.10;27.00;53.20;100995;;;;575700;246;23050;-80
2022/06/11 10:18:18;;;;;;;4.07;1.90;;;53.90;27.70;51.70;100992;;;;576002;246;23065;-81
2022/06/11 10:20:52;;;;;;;4.32;1.90;;;53.90;27.70;49.70;100989;;;;576595;246;23097;-86
2022/06/11 10:23:54;;;;;;;3.45;1.77;;;52.00;27.90;49.10;100978;;;;570460;246;24120;-84
2022/06/11 10:26:25;;;;;;;3.35;1.60;;;50.90;28.90;48.70;100978;;;;575983;246;23060;-84
2022/06/11 10:29:07;;;;;;;4.07;1.90;;;50.10;28.80;48.00;100985;;;;569110;246;23176;-80
2022/06/11 10:31:39;;;;;;;3.08;1.33;;;49.00;29.30;47.20;100980;;;;576569;246;23116;-84
2022/06/11 10:34:25;;;;;;;4.50;1.33;;;48.10;29.80;46.30;100984;;;;574731;246;23092;-82
2022/06/11 10:36:56;;;;;;;1.70;1.25;;;48.00;29.70;45.20;100982;;;;577788;246;23067;-86
2022/06/11 10:39:30;;;;;;;1.48;1.37;;;46.90;30.30;44.10;100983;;;;576264;246;25296;-86
2022/06/11 10:42:05;;;;;;;3.75;1.50;;;45.70;31.70;43.30;100980;;;;576739;245;23052;-87
2022/06/11 10:44:38;;;;;;;2.67;1.60;;;44.40;32.70;42.20;100974;;;;572356;245;23073;-85
2022/06/11 10:47:24;;;;;;;1.80;1.42;;;43.00;33.80;41.00;100976;;;;578527;245;23059;-81
2022/06/11 10:49:52;;;;;;;3.80;1.33;;;41.60;34.40;39.20;100976;;;;578261;245;23056;-80
2022/06/11 10:52:47;;;;;;;3.40;1.42;;;39.70;35.30;37.50;100970;;;;576560;245;23085;-81
2022/06/11 10:55:27;;;;;;;2.60;1.40;;;38.00;37.10;35.80;100965;;;;577084;245;23140;-79
2022/06/11 10:57:58;;;;;;;3.45;1.37;;;36.20;38.70;34.90;100965;;;;576520;245;23133;-80
2022/06/11 11:00:32;;;;;;;1.27;1.08;;;35.00;40.60;34.20;100962;;;;571129;246;24151;-80
2022/06/11 11:03:05;;;;;;;1.67;1.52;;;34.20;41.60;33.00;100957;;;;575644;246;23089;-78
2022/06/11 11:06:04;;;;;;;5.68;2.05;;;33.10;42.50;32.30;100965;;;;576099;246;23081;-79
2022/06/11 11:08:32;;;;;;;3.75;1.10;;;32.30;43.60;31.60;100961;;;;576618;246;24090;-80
2022/06/11 11:11:00;;;;;;;1.60;1.02;;;31.00;44.80;31.10;100954;;;;576627;246;23097;-80
2022/06/11 11:13:32;;;;;;;1.42;1.15;;;31.00;44.70;30.50;100966;;;;585815;245;23128;-81
2022/06/11 11:16:22;;;;;;;4.62;1.83;;;30.50;45.40;29.80;100953;;;;576539;246;24141;-81
2022/06/11 11:18:57;;;;;;;3.20;1.60;;;29.90;46.50;29.20;100951;;;;576674;246;24130;-83
2022/06/11 11:21:34;;;;;;;1.00;1.00;;;29.30;46.70;28.70;100949;;;;576440;246;23069;-82
2022/06/11 11:24:03;;;;;;;5.27;1.27;;;28.60;47.90;28.40;100947;;;;576174;246;23061;-80
2022/06/11 11:26:43;;;;;;;1.00;0.90;;;28.50;47.80;28.20;100940;;;;575803;246;24078;-83
2022/06/11 11:29:17;;;;;;;1.70;1.60;;;28.30;48.00;28.10;100941;;;;575936;246;23064;-85
2022/06/11 11:31:48;;;;;;;2.30;1.07;;;28.20;48.20;28.10;100943;;;;573372;246;23076;-82
2022/06/11 11:34:22;;;;;;;3.17;1.80;;;28.20;50.20;27.90;100938;;;;576062;246;23155;-81
2022/06/11 11:36:50;;;;;;;2.20;1.50;;;28.10;49.80;27.80;100937;;;;575978;246;23062;-79